Time,TemperatureF,DewpointF,PressureIn,WindDirection,WindDirectionDegrees,WindSpeedMPH,WindSpeedGustMPH,Humidity,HourlyPrecipIn,Conditions,Clouds,dailyrainin,SoftwareType,DateUTC
2013-03-25 00:00:00,37.4,11.6,29.65,ENE,67,3.6,3.6,34,0.00,,---,0.00,VWS V14.01,2013-03-25 04:00:00,
2013-03-25 00:01:00,37.4,11.6,29.65,ENE,71,5.4,5.4,34,0.00,,---,0.00,VWS V14.01,2013-03-25 04:01:00,
2013-03-25 00:06:00,37.6,12.4,29.65,East,81,2.7,2.7,35,0.00,,---,0.00,VWS V14.01,2013-03-25 04:06:00,
2013-03-25 00:11:00,37.6,12.4,29.65,East,94,3.6,3.6,35,0.00,,---,0.00,VWS V14.01,2013-03-25 04:11:00,
2013-03-25 00:16:00,37.6,13.1,29.65,ENE,74,3.1,3.1,36,0.00,,---,0.00,VWS V14.01,2013-03-25 04:16:00,
2013-03-25 00:21:00,37.8,13.2,29.65,East,88,2.7,2.7,36,0.00,,---,0.00,VWS V14.01,2013-03-25 04:21:00,
2013-03-25 00:26:00,37.8,13.2,29.65,ENE,71,4.0,4.0,36,0.00,,---,0.00,VWS V14.01,2013-03-25 04:26:00,
2013-03-25 00:31:00,37.9,13.4,29.65,ENE,69,3.6,3.6,36,0.00,,---,0.00,VWS V14.01,2013-03-25 04:31:00,
2013-03-25 00:36:00,37.9,13.4,29.65,ENE,77,3.6,3.6,36,0.00,,---,0.00,VWS V14.01,2013-03-25 04:36:00,
2013-03-25 00:41:00,37.9,14.0,29.65,East,99,5.8,5.8,37,0.00,,---,0.00,VWS V14.01,2013-03-25 04:41:00,
2013-03-25 00:46:00,37.9,14.0,29.65,East,82,3.1,3.1,37,0.00,,---,0.00,VWS V14.01,2013-03-25 04:46:00,
2013-03-25 00:51:00,38.1,13.5,29.65,ENE,62,3.6,3.6,36,0.00,,---,0.00,VWS V14.01,2013-03-25 04:51:00,
2013-03-25 00:56:00,38.1,13.5,29.65,ENE,69,3.1,3.1,36,0.00,,---,0.00,VWS V14.01,2013-03-25 04:56:00,
2013-03-25 01:01:00,38.1,13.5,29.65,ENE,75,0.0,0.0,36,0.00,,---,0.00,VWS V14.01,2013-03-25 05:01:00,
2013-03-25 01:07:00,38.1,13.5,29.65,ESE,113,0.0,0.0,36,0.00,,---,0.00,VWS V14.01,2013-03-25 05:07:00,
2013-03-25 01:12:00,38.1,13.5,29.65,East,87,0.0,0.0,36,0.00,,---,0.00,VWS V14.01,2013-03-25 05:12:00,
2013-03-25 01:17:00,38.1,13.5,29.65,ENE,75,3.6,3.6,36,0.00,,---,0.00,VWS V14.01,2013-03-25 05:17:00,
2013-03-25 01:22:00,38.1,13.5,29.65,ENE,72,2.7,2.7,36,0.00,,---,0.00,VWS V14.01,2013-03-25 05:22:00,
2013-03-25 01:27:00,38.1,13.5,29.65,ENE,78,0.0,0.0,36,0.00,,---,0.00,VWS V14.01,2013-03-25 05:27:00,
2013-03-25 01:32:00,38.1,14.2,29.65,ENE,61,4.0,4.0,37,0.00,,---,0.00,VWS V14.01,2013-03-25 05:32:00,
2013-03-25 01:37:00,38.3,14.3,29.65,ENE,65,2.7,2.7,37,0.00,,---,0.00,VWS V14.01,2013-03-25 05:37:00,
2013-03-25 01:42:00,38.3,14.9,29.65,NE,37,6.3,6.3,38,0.00,,---,0.00,VWS V14.01,2013-03-25 05:42:00,
2013-03-25 01:47:00,38.3,14.9,29.65,ENE,62,3.1,3.1,38,0.00,,---,0.00,VWS V14.01,2013-03-25 05:47:00,
2013-03-25 01:52:00,38.5,15.1,29.65,SE,127,5.8,5.8,38,0.00,,---,0.00,VWS V14.01,2013-03-25 05:52:00,
2013-03-25 01:57:00,38.7,14.0,29.65,ENE,69,3.1,3.1,36,0.00,,---,0.00,VWS V14.01,2013-03-25 05:57:00,
2013-03-25 02:02:00,38.7,14.6,29.65,East,83,4.5,4.5,37,0.00,,---,0.00,VWS V14.01,2013-03-25 06:02:00,
2013-03-25 02:07:00,38.7,14.0,29.65,East,97,5.8,5.8,36,0.00,,---,0.00,VWS V14.01,2013-03-25 06:07:00,
2013-03-25 02:12:00,38.7,14.0,29.65,ENE,57,2.7,2.7,36,0.00,,---,0.00,VWS V14.01,2013-03-25 06:12:00,
2013-03-25 02:17:00,38.8,14.8,29.65,East,92,4.0,4.0,37,0.00,,---,0.00,VWS V14.01,2013-03-25 06:17:00,
2013-03-25 02:22:00,38.8,14.8,29.62,ENE,71,3.1,3.1,37,0.00,,---,0.00,VWS V14.01,2013-03-25 06:22:00,
2013-03-25 02:27:00,38.8,15.4,29.62,NE,44,6.3,6.3,38,0.00,,---,0.00,VWS V14.01,2013-03-25 06:27:00,
2013-03-25 02:32:00,38.8,16.0,29.62,ENE,71,5.8,5.8,39,0.00,,---,0.00,VWS V14.01,2013-03-25 06:32:00,
2013-03-25 02:37:00,38.8,16.0,29.62,ENE,68,3.6,3.6,39,0.00,,---,0.00,VWS V14.01,2013-03-25 06:37:00,
2013-03-25 02:42:00,38.8,16.0,29.62,North,10,3.6,3.6,39,0.00,,---,0.00,VWS V14.01,2013-03-25 06:42:00,
2013-03-25 02:47:00,38.8,16.0,29.62,NE,47,7.6,7.6,39,0.00,,---,0.00,VWS V14.01,2013-03-25 06:47:00,
2013-03-25 02:52:00,38.8,16.6,29.62,NE,46,6.3,6.3,40,0.00,,---,0.00,VWS V14.01,2013-03-25 06:52:00,
2013-03-25 02:57:00,38.8,16.6,29.62,ENE,72,5.8,5.8,40,0.00,,---,0.00,VWS V14.01,2013-03-25 06:57:00,
2013-03-25 03:02:00,38.8,16.6,29.59,East,89,7.6,7.6,40,0.00,,---,0.00,VWS V14.01,2013-03-25 07:02:00,
2013-03-25 03:07:00,38.8,16.6,29.59,ENE,57,6.3,6.3,40,0.00,,---,0.00,VWS V14.01,2013-03-25 07:07:00,
2013-03-25 03:12:00,38.8,16.6,29.59,NE,56,6.3,6.3,40,0.00,,---,0.00,VWS V14.01,2013-03-25 07:12:00,
2013-03-25 03:17:00,38.8,16.6,29.59,ENE,74,6.3,6.3,40,0.00,,---,0.00,VWS V14.01,2013-03-25 07:17:00,
2013-03-25 03:22:00,38.8,16.6,29.59,ENE,71,6.7,6.7,40,0.00,,---,0.00,VWS V14.01,2013-03-25 07:22:00,
2013-03-25 03:27:00,38.8,16.0,29.59,ENE,69,6.3,6.3,39,0.00,,---,0.00,VWS V14.01,2013-03-25 07:27:00,
2013-03-25 03:32:00,38.8,16.0,29.59,NE,55,5.8,5.8,39,0.00,,---,0.00,VWS V14.01,2013-03-25 07:32:00,
2013-03-25 03:37:00,38.8,16.0,29.59,East,86,5.4,5.4,39,0.00,,---,0.00,VWS V14.01,2013-03-25 07:37:00,
2013-03-25 03:42:00,39.0,16.2,29.59,East,89,8.3,8.3,39,0.00,,---,0.00,VWS V14.01,2013-03-25 07:42:00,
2013-03-25 03:47:00,39.0,16.2,29.59,East,93,10.1,10.1,39,0.00,,---,0.00,VWS V14.01,2013-03-25 07:47:00,
2013-03-25 03:52:00,39.0,16.2,29.56,East,79,6.3,6.3,39,0.00,,---,0.00,VWS V14.01,2013-03-25 07:52:00,
2013-03-25 03:57:00,39.0,16.2,29.56,East,79,7.6,7.6,39,0.00,,---,0.00,VWS V14.01,2013-03-25 07:57:00,
2013-03-25 04:03:00,39.0,16.2,29.56,ENE,74,10.5,10.5,39,0.00,,---,0.00,VWS V14.01,2013-03-25 08:03:00,
2013-03-25 04:08:00,39.0,16.2,29.56,East,100,13.2,13.2,39,0.00,,---,0.00,VWS V14.01,2013-03-25 08:08:00,
2013-03-25 04:13:00,39.0,16.2,29.56,ENE,58,5.4,5.4,39,0.00,,---,0.00,VWS V14.01,2013-03-25 08:13:00,
2013-03-25 04:18:00,39.0,16.8,29.56,North,11,4.0,4.0,40,0.00,,---,0.00,VWS V14.01,2013-03-25 08:18:00,
2013-03-25 04:23:00,39.0,16.8,29.56,NE,51,4.9,4.9,40,0.00,,---,0.00,VWS V14.01,2013-03-25 08:23:00,
2013-03-25 04:28:00,39.0,16.8,29.56,NE,51,4.9,4.9,40,0.00,,---,0.00,VWS V14.01,2013-03-25 08:28:00,
2013-03-25 04:33:00,39.0,16.8,29.53,NNE,22,8.7,8.7,40,0.00,,---,0.00,VWS V14.01,2013-03-25 08:33:00,
2013-03-25 04:38:00,39.0,16.8,29.53,ENE,73,7.6,7.6,40,0.00,,---,0.00,VWS V14.01,2013-03-25 08:38:00,
2013-03-25 04:43:00,39.0,16.8,29.53,East,89,8.3,8.3,40,0.00,,---,0.00,VWS V14.01,2013-03-25 08:43:00,
2013-03-25 04:48:00,39.0,16.8,29.53,ENE,69,6.3,6.3,40,0.00,,---,0.00,VWS V14.01,2013-03-25 08:48:00,
2013-03-25 04:53:00,39.0,16.8,29.53,ENE,71,5.8,5.8,40,0.00,,---,0.00,VWS V14.01,2013-03-25 08:53:00,
2013-03-25 04:58:00,39.0,16.8,29.53,East,81,12.8,12.8,40,0.00,,---,0.00,VWS V14.01,2013-03-25 08:58:00,
2013-03-25 05:03:00,39.0,17.3,29.53,ENE,57,10.5,10.5,41,0.00,,---,0.00,VWS V14.01,2013-03-25 09:03:00,
2013-03-25 05:08:00,39.0,17.3,29.53,NE,42,5.8,5.8,41,0.00,,---,0.00,VWS V14.01,2013-03-25 09:08:00,
2013-03-25 05:13:00,39.0,17.3,29.53,ESE,103,4.9,4.9,41,0.00,,---,0.00,VWS V14.01,2013-03-25 09:13:00,
2013-03-25 05:18:00,39.0,17.3,29.53,NE,48,5.4,5.4,41,0.00,,---,0.00,VWS V14.01,2013-03-25 09:18:00,
2013-03-25 05:23:00,39.0,17.3,29.53,ENE,65,8.1,8.1,41,0.00,,---,0.00,VWS V14.01,2013-03-25 09:23:00,
2013-03-25 05:28:00,39.0,17.3,29.53,East,91,6.3,6.3,41,0.00,,---,0.00,VWS V14.01,2013-03-25 09:28:00,
2013-03-25 05:33:00,39.0,17.3,29.53,East,89,12.3,12.3,41,0.00,,---,0.00,VWS V14.01,2013-03-25 09:33:00,
2013-03-25 05:38:00,39.0,17.3,29.53,NNE,25,6.3,6.3,41,0.00,,---,0.00,VWS V14.01,2013-03-25 09:38:00,
2013-03-25 05:43:00,39.0,17.3,29.53,East,87,6.3,6.3,41,0.00,,---,0.00,VWS V14.01,2013-03-25 09:43:00,
2013-03-25 05:48:00,39.0,17.3,29.53,NNE,25,7.6,7.6,41,0.00,,---,0.00,VWS V14.01,2013-03-25 09:48:00,
2013-03-25 05:53:00,39.0,17.9,29.53,NE,53,8.7,8.7,42,0.00,,---,0.00,VWS V14.01,2013-03-25 09:53:00,
2013-03-25 05:58:00,39.0,17.9,29.53,ENE,74,11.4,11.4,42,0.00,,---,0.00,VWS V14.01,2013-03-25 09:58:00,
2013-03-25 06:03:00,39.0,18.4,29.53,NE,52,5.8,5.8,43,0.00,,---,0.00,VWS V14.01,2013-03-25 10:03:00,
2013-03-25 06:08:00,39.0,18.4,29.53,ENE,73,6.3,6.3,43,0.00,,---,0.00,VWS V14.01,2013-03-25 10:08:00,
2013-03-25 06:13:00,39.0,18.4,29.53,NE,35,8.3,8.3,43,0.00,,---,0.00,VWS V14.01,2013-03-25 10:13:00,
2013-03-25 06:18:00,39.0,19.0,29.53,NE,56,7.6,7.6,44,0.00,,---,0.00,VWS V14.01,2013-03-25 10:18:00,
2013-03-25 06:23:00,39.0,19.0,29.53,NNE,28,8.1,8.1,44,0.00,,---,0.00,VWS V14.01,2013-03-25 10:23:00,
2013-03-25 06:28:00,38.8,19.3,29.53,ENE,69,13.6,13.6,45,0.00,,---,0.00,VWS V14.01,2013-03-25 10:28:00,
2013-03-25 06:33:00,38.8,19.3,29.53,ENE,67,8.3,8.3,45,0.00,,---,0.00,VWS V14.01,2013-03-25 10:33:00,
2013-03-25 06:38:00,38.8,20.4,29.53,East,82,11.0,11.0,47,0.00,,---,0.00,VWS V14.01,2013-03-25 10:38:00,
2013-03-25 06:43:00,38.8,20.8,29.53,ENE,71,12.8,12.8,48,0.00,,---,0.00,VWS V14.01,2013-03-25 10:43:00,
2013-03-25 06:48:00,38.8,21.3,29.50,NNE,27,9.6,9.6,49,0.00,,---,0.00,VWS V14.01,2013-03-25 10:48:00,
2013-03-25 06:53:00,38.8,21.3,29.50,North,11,5.8,5.8,49,0.00,,---,0.00,VWS V14.01,2013-03-25 10:53:00,
2013-03-25 06:58:00,38.8,21.3,29.50,ENE,66,8.3,8.3,49,0.00,,---,0.00,VWS V14.01,2013-03-25 10:58:00,
2013-03-25 07:03:00,38.7,21.6,29.50,ENE,61,8.1,8.1,50,0.00,,---,0.00,VWS V14.01,2013-03-25 11:03:00,
2013-03-25 07:08:00,38.7,22.1,29.50,ENE,62,13.6,13.6,51,0.00,,---,0.00,VWS V14.01,2013-03-25 11:08:00,
2013-03-25 07:13:00,38.7,22.1,29.53,ENE,67,11.0,11.0,51,0.00,,---,0.00,VWS V14.01,2013-03-25 11:13:00,
2013-03-25 07:19:00,38.7,22.6,29.53,ENE,70,7.2,7.2,52,0.00,,---,0.00,VWS V14.01,2013-03-25 11:19:00,
2013-03-25 07:24:00,38.7,22.6,29.53,NE,49,8.7,8.7,52,0.00,,---,0.00,VWS V14.01,2013-03-25 11:24:00,
2013-03-25 07:29:00,38.5,22.9,29.53,ENE,60,14.5,14.5,53,0.00,,---,0.00,VWS V14.01,2013-03-25 11:29:00,
2013-03-25 07:34:00,38.5,22.9,29.53,ENE,59,8.3,8.3,53,0.00,,---,0.00,VWS V14.01,2013-03-25 11:34:00,
2013-03-25 07:39:00,38.5,23.3,29.53,NE,49,4.0,4.0,54,0.00,,---,0.00,VWS V14.01,2013-03-25 11:39:00,
2013-03-25 07:44:00,38.3,24.0,29.53,East,80,8.3,8.3,56,0.00,,---,0.00,VWS V14.01,2013-03-25 11:44:00,
2013-03-25 07:49:00,38.3,24.4,29.53,East,79,13.6,13.6,57,0.00,,---,0.00,VWS V14.01,2013-03-25 11:49:00,
2013-03-25 07:54:00,38.1,24.7,29.53,NE,38,10.5,10.5,58,0.00,,---,0.00,VWS V14.01,2013-03-25 11:54:00,
2013-03-25 07:59:00,38.1,25.1,29.53,ENE,70,8.7,8.7,59,0.00,,---,0.00,VWS V14.01,2013-03-25 11:59:00,
2013-03-25 08:04:00,38.1,25.9,29.53,East,87,10.5,10.5,61,0.00,,---,0.00,VWS V14.01,2013-03-25 12:04:00,
2013-03-25 08:09:00,37.9,26.1,29.53,ENE,76,6.3,6.3,62,0.00,,---,0.00,VWS V14.01,2013-03-25 12:09:00,
2013-03-25 08:14:00,37.9,26.5,29.53,ENE,60,10.1,10.1,63,0.00,,---,0.00,VWS V14.01,2013-03-25 12:14:00,
2013-03-25 08:19:00,37.9,26.9,29.53,NNE,18,3.6,3.6,64,0.00,,---,0.00,VWS V14.01,2013-03-25 12:19:00,
2013-03-25 08:24:00,37.9,26.9,29.53,NE,46,6.3,6.3,64,0.00,,---,0.00,VWS V14.01,2013-03-25 12:24:00,
2013-03-25 08:29:00,37.9,27.6,29.53,ENE,74,7.6,7.6,66,0.04,,---,0.04,VWS V14.01,2013-03-25 12:29:00,
2013-03-25 08:34:00,37.8,27.4,29.53,ENE,71,8.1,8.1,66,0.04,,---,0.04,VWS V14.01,2013-03-25 12:34:00,
2013-03-25 08:39:00,37.6,27.6,29.53,ENE,77,5.8,5.8,67,0.04,,---,0.04,VWS V14.01,2013-03-25 12:39:00,
2013-03-25 08:44:00,37.6,28.0,29.53,East,80,14.1,14.1,68,0.04,,---,0.04,VWS V14.01,2013-03-25 12:44:00,
2013-03-25 08:49:00,37.6,28.0,29.53,ENE,78,12.3,12.3,68,0.04,,---,0.04,VWS V14.01,2013-03-25 12:49:00,
2013-03-25 08:54:00,37.4,28.2,29.53,NE,35,15.4,15.4,69,0.08,,---,0.08,VWS V14.01,2013-03-25 12:54:00,
2013-03-25 08:59:00,37.4,28.2,29.53,ENE,62,3.6,3.6,69,0.08,,---,0.08,VWS V14.01,2013-03-25 12:59:00,
2013-03-25 09:04:00,37.0,28.2,29.53,ENE,59,8.7,8.7,70,0.08,,---,0.08,VWS V14.01,2013-03-25 13:04:00,
2013-03-25 09:09:00,37.0,28.2,29.53,NE,53,13.6,13.6,70,0.08,,---,0.08,VWS V14.01,2013-03-25 13:09:00,
2013-03-25 09:14:00,36.9,28.4,29.53,ENE,58,5.4,5.4,71,0.12,,---,0.12,VWS V14.01,2013-03-25 13:14:00,
2013-03-25 09:19:00,36.7,28.2,29.53,NE,56,12.3,12.3,71,0.12,,---,0.12,VWS V14.01,2013-03-25 13:19:00,
2013-03-25 09:24:00,36.7,28.2,29.53,East,81,6.3,6.3,71,0.12,,---,0.12,VWS V14.01,2013-03-25 13:24:00,
2013-03-25 09:29:00,36.5,28.0,29.53,NE,44,3.6,3.6,71,0.12,,---,0.12,VWS V14.01,2013-03-25 13:29:00,
2013-03-25 09:34:00,36.5,28.4,29.53,NE,47,8.3,8.3,72,0.16,,---,0.20,VWS V14.01,2013-03-25 13:34:00,
2013-03-25 09:39:00,36.3,28.2,29.53,ENE,71,8.3,8.3,72,0.16,,---,0.20,VWS V14.01,2013-03-25 13:39:00,
2013-03-25 09:44:00,35.8,27.6,29.53,ENE,69,13.2,13.2,72,0.16,,---,0.20,VWS V14.01,2013-03-25 13:44:00,
2013-03-25 09:49:00,35.8,27.6,29.53,East,89,4.0,4.0,72,0.20,,---,0.24,VWS V14.01,2013-03-25 13:49:00,
2013-03-25 09:54:00,35.4,27.6,29.53,ENE,74,11.0,11.0,73,0.20,,---,0.24,VWS V14.01,2013-03-25 13:54:00,
2013-03-25 09:59:00,35.4,27.6,29.53,ENE,75,10.5,10.5,73,0.24,,---,0.28,VWS V14.01,2013-03-25 13:59:00,
2013-03-25 10:04:00,35.4,27.6,29.53,NE,43,7.6,7.6,73,0.20,,---,0.28,VWS V14.01,2013-03-25 14:04:00,
2013-03-25 10:09:00,35.4,27.6,29.53,East,88,7.6,7.6,73,0.20,,---,0.28,VWS V14.01,2013-03-25 14:09:00,
2013-03-25 10:14:00,35.6,28.1,29.50,NE,48,8.3,8.3,74,0.20,,---,0.28,VWS V14.01,2013-03-25 14:14:00,
2013-03-25 10:19:00,35.6,28.1,29.50,NE,52,17.4,17.4,74,0.20,,---,0.31,VWS V14.01,2013-03-25 14:19:00,
2013-03-25 10:24:00,35.6,28.5,29.50,NE,34,11.0,11.0,75,0.20,,---,0.31,VWS V14.01,2013-03-25 14:24:00,
2013-03-25 10:29:00,35.6,28.5,29.50,ENE,75,8.3,8.3,75,0.20,,---,0.31,VWS V14.01,2013-03-25 14:29:00,
2013-03-25 10:34:00,35.6,28.5,29.50,NE,51,5.8,5.8,75,0.20,,---,0.31,VWS V14.01,2013-03-25 14:34:00,
2013-03-25 10:39:00,35.4,28.3,29.50,NNE,32,11.0,11.0,75,0.24,,---,0.35,VWS V14.01,2013-03-25 14:39:00,
2013-03-25 10:44:00,35.4,28.3,29.50,NE,51,4.9,4.9,75,0.24,,---,0.35,VWS V14.01,2013-03-25 14:44:00,
2013-03-25 10:49:00,35.4,28.3,29.50,NNE,28,5.4,5.4,75,0.16,,---,0.35,VWS V14.01,2013-03-25 14:49:00,
2013-03-25 10:54:00,35.2,28.5,29.50,East,92,7.6,7.6,76,0.16,,---,0.35,VWS V14.01,2013-03-25 14:54:00,
2013-03-25 10:59:00,35.4,28.6,29.50,ENE,78,10.1,10.1,76,0.16,,---,0.35,VWS V14.01,2013-03-25 14:59:00,
2013-03-25 11:04:00,35.4,28.6,29.50,NNE,25,12.8,12.8,76,0.08,,---,0.35,VWS V14.01,2013-03-25 15:04:00,
2013-03-25 11:09:00,35.4,28.6,29.50,ENE,58,8.7,8.7,76,0.12,,---,0.39,VWS V14.01,2013-03-25 15:09:00,
2013-03-25 11:14:00,35.4,28.6,29.47,NE,38,8.3,8.3,76,0.12,,---,0.39,VWS V14.01,2013-03-25 15:14:00,
2013-03-25 11:19:00,35.6,28.8,29.47,NE,39,10.5,10.5,76,0.12,,---,0.39,VWS V14.01,2013-03-25 15:19:00,
2013-03-25 11:24:00,35.6,28.8,29.47,ENE,59,3.6,3.6,76,0.12,,---,0.39,VWS V14.01,2013-03-25 15:24:00,
2013-03-25 11:30:00,35.8,29.3,29.47,ENE,75,7.6,7.6,77,0.12,,---,0.39,VWS V14.01,2013-03-25 15:30:00,
2013-03-25 11:35:00,35.8,29.3,29.47,NNE,15,13.2,13.2,77,0.08,,---,0.39,VWS V14.01,2013-03-25 15:35:00,
2013-03-25 11:40:00,35.8,29.3,29.47,ENE,58,8.3,8.3,77,0.08,,---,0.39,VWS V14.01,2013-03-25 15:40:00,
2013-03-25 11:45:00,36.3,29.8,29.47,ENE,76,11.0,11.0,77,0.08,,---,0.39,VWS V14.01,2013-03-25 15:45:00,
2013-03-25 11:50:00,36.5,30.0,29.47,NNE,31,11.0,11.0,77,0.04,,---,0.39,VWS V14.01,2013-03-25 15:50:00,
2013-03-25 11:55:00,36.7,30.2,29.47,NE,54,8.1,8.1,77,0.04,,---,0.39,VWS V14.01,2013-03-25 15:55:00,
2013-03-25 12:00:00,36.7,30.2,29.47,ENE,74,8.1,8.1,77,0.08,,---,0.43,VWS V14.01,2013-03-25 16:00:00,
2013-03-25 12:05:00,36.7,30.2,29.47,ENE,71,7.6,7.6,77,0.08,,---,0.43,VWS V14.01,2013-03-25 16:05:00,
2013-03-25 12:10:00,36.7,30.2,29.47,NNE,28,8.7,8.7,77,0.08,,---,0.43,VWS V14.01,2013-03-25 16:10:00,
2013-03-25 12:15:00,36.5,30.0,29.47,NE,49,10.1,10.1,77,0.08,,---,0.43,VWS V14.01,2013-03-25 16:15:00,
2013-03-25 12:20:00,36.7,30.2,29.47,East,87,16.8,16.8,77,0.04,,---,0.43,VWS V14.01,2013-03-25 16:20:00,
2013-03-25 12:25:00,36.7,30.2,29.47,NE,45,8.7,8.7,77,0.04,,---,0.43,VWS V14.01,2013-03-25 16:25:00,
2013-03-25 12:30:00,36.7,30.2,29.44,NNE,23,13.2,13.2,77,0.04,,---,0.43,VWS V14.01,2013-03-25 16:30:00,
2013-03-25 12:35:00,36.5,30.0,29.44,NNE,29,8.7,8.7,77,0.04,,---,0.43,VWS V14.01,2013-03-25 16:35:00,
2013-03-25 12:40:00,36.5,30.0,29.44,ENE,64,17.0,17.0,77,0.04,,---,0.43,VWS V14.01,2013-03-25 16:40:00,
2013-03-25 12:45:00,36.3,29.5,29.44,NE,43,18.3,18.3,76,0.04,,---,0.43,VWS V14.01,2013-03-25 16:45:00,
2013-03-25 12:50:00,36.3,29.5,29.44,ENE,58,8.3,8.3,76,0.04,,---,0.43,VWS V14.01,2013-03-25 16:50:00,
2013-03-25 12:55:00,36.1,29.3,29.44,NE,35,10.5,10.5,76,0.04,,---,0.43,VWS V14.01,2013-03-25 16:55:00,
2013-03-25 13:00:00,36.0,29.1,29.44,NNE,25,10.5,10.5,76,0.04,,---,0.43,VWS V14.01,2013-03-25 17:00:00,
2013-03-25 13:05:00,36.0,29.1,29.44,ENE,69,17.4,17.4,76,0.00,,---,0.43,VWS V14.01,2013-03-25 17:05:00,
2013-03-25 13:10:00,36.0,29.1,29.44,NE,45,17.4,17.4,76,0.00,,---,0.43,VWS V14.01,2013-03-25 17:10:00,
2013-03-25 13:15:00,36.1,29.3,29.44,NNE,16,4.9,4.9,76,0.00,,---,0.43,VWS V14.01,2013-03-25 17:15:00,
2013-03-25 13:20:00,36.1,29.3,29.44,NNE,14,8.1,8.1,76,0.00,,---,0.43,VWS V14.01,2013-03-25 17:20:00,
2013-03-25 13:25:00,36.1,29.3,29.44,ENE,75,10.5,10.5,76,0.04,,---,0.47,VWS V14.01,2013-03-25 17:25:00,
2013-03-25 13:30:00,36.1,29.3,29.44,East,89,5.8,5.8,76,0.04,,---,0.47,VWS V14.01,2013-03-25 17:30:00,
2013-03-25 13:35:00,36.1,29.3,29.44,ENE,74,6.3,6.3,76,0.04,,---,0.47,VWS V14.01,2013-03-25 17:35:00,
2013-03-25 13:40:00,36.3,29.5,29.41,NE,36,12.3,12.3,76,0.04,,---,0.47,VWS V14.01,2013-03-25 17:40:00,
2013-03-25 13:45:00,36.3,29.5,29.41,NE,40,14.1,14.1,76,0.04,,---,0.47,VWS V14.01,2013-03-25 17:45:00,
2013-03-25 13:50:00,36.3,29.5,29.41,NNE,19,11.0,11.0,76,0.04,,---,0.47,VWS V14.01,2013-03-25 17:50:00,
2013-03-25 13:55:00,36.7,29.8,29.41,NE,51,11.0,11.0,76,0.04,,---,0.47,VWS V14.01,2013-03-25 17:55:00,
2013-03-25 14:00:00,36.7,29.8,29.41,NE,50,8.1,8.1,76,0.04,,---,0.47,VWS V14.01,2013-03-25 18:00:00,
2013-03-25 14:05:00,36.7,29.8,29.41,ENE,57,9.2,9.2,76,0.04,,---,0.47,VWS V14.01,2013-03-25 18:05:00,
2013-03-25 14:10:00,36.9,30.0,29.41,NNE,32,8.3,8.3,76,0.04,,---,0.47,VWS V14.01,2013-03-25 18:10:00,
2013-03-25 14:15:00,36.9,30.0,29.41,NE,56,15.4,15.4,76,0.04,,---,0.47,VWS V14.01,2013-03-25 18:15:00,
2013-03-25 14:20:00,36.5,29.3,29.41,NE,51,15.4,15.4,75,0.04,,---,0.47,VWS V14.01,2013-03-25 18:20:00,
2013-03-25 14:25:00,36.5,29.3,29.41,NNE,28,8.7,8.7,75,0.04,,---,0.47,VWS V14.01,2013-03-25 18:25:00,
2013-03-25 14:30:00,36.5,29.3,29.38,East,86,5.4,5.4,75,0.00,,---,0.47,VWS V14.01,2013-03-25 18:30:00,
2013-03-25 14:35:00,36.3,28.8,29.38,ENE,63,12.3,12.3,74,0.04,,---,0.51,VWS V14.01,2013-03-25 18:35:00,
2013-03-25 14:40:00,36.3,28.8,29.38,East,85,11.4,11.4,74,0.04,,---,0.51,VWS V14.01,2013-03-25 18:40:00,
2013-03-25 14:45:00,36.3,28.8,29.41,ENE,70,7.6,7.6,74,0.04,,---,0.51,VWS V14.01,2013-03-25 18:45:00,
2013-03-25 14:50:00,36.3,28.8,29.41,ENE,61,15.4,15.4,74,0.04,,---,0.51,VWS V14.01,2013-03-25 18:50:00,
2013-03-25 14:55:00,36.1,28.7,29.41,NE,46,12.8,12.8,74,0.04,,---,0.51,VWS V14.01,2013-03-25 18:55:00,
2013-03-25 15:00:00,36.1,28.7,29.41,NE,47,2.7,2.7,74,0.04,,---,0.51,VWS V14.01,2013-03-25 19:00:00,
2013-03-25 15:05:00,36.1,28.7,29.41,NE,36,13.6,13.6,74,0.04,,---,0.51,VWS V14.01,2013-03-25 19:05:00,
2013-03-25 15:10:00,36.1,28.7,29.41,NNE,29,10.1,10.1,74,0.04,,---,0.51,VWS V14.01,2013-03-25 19:10:00,
2013-03-25 15:15:00,36.1,28.7,29.41,NE,45,8.3,8.3,74,0.04,,---,0.51,VWS V14.01,2013-03-25 19:15:00,
2013-03-25 15:20:00,36.1,28.7,29.41,NNE,20,6.3,6.3,74,0.04,,---,0.51,VWS V14.01,2013-03-25 19:20:00,
2013-03-25 15:25:00,36.3,28.8,29.41,NE,47,5.8,5.8,74,0.04,,---,0.51,VWS V14.01,2013-03-25 19:25:00,
2013-03-25 15:30:00,36.3,28.8,29.41,East,83,4.9,4.9,74,0.08,,---,0.55,VWS V14.01,2013-03-25 19:30:00,
2013-03-25 15:35:00,36.3,28.8,29.41,North,10,10.5,10.5,74,0.08,,---,0.55,VWS V14.01,2013-03-25 19:35:00,
2013-03-25 15:40:00,36.3,29.2,29.41,NE,56,11.0,11.0,75,0.08,,---,0.55,VWS V14.01,2013-03-25 19:40:00,
2013-03-25 15:45:00,36.1,29.0,29.38,North,357,8.1,8.1,75,0.04,,---,0.55,VWS V14.01,2013-03-25 19:45:00,
2013-03-25 15:50:00,36.1,29.0,29.38,East,97,6.3,6.3,75,0.04,,---,0.55,VWS V14.01,2013-03-25 19:50:00,
2013-03-25 15:55:00,36.1,29.0,29.38,NE,50,7.6,7.6,75,0.04,,---,0.55,VWS V14.01,2013-03-25 19:55:00,
2013-03-25 16:00:00,36.1,29.0,29.38,North,0,11.0,11.0,75,0.04,,---,0.55,VWS V14.01,2013-03-25 20:00:00,
2013-03-25 16:05:00,36.5,29.3,29.38,ENE,61,10.1,10.1,75,0.04,,---,0.55,VWS V14.01,2013-03-25 20:05:00,
2013-03-25 16:10:00,36.5,29.3,29.38,NNE,21,17.0,17.0,75,0.04,,---,0.55,VWS V14.01,2013-03-25 20:10:00,
2013-03-25 16:15:00,36.5,29.3,29.38,NNE,19,11.9,11.9,75,0.08,,---,0.59,VWS V14.01,2013-03-25 20:15:00,
2013-03-25 16:20:00,36.5,29.3,29.38,NE,48,12.3,12.3,75,0.08,,---,0.59,VWS V14.01,2013-03-25 20:20:00,
2013-03-25 16:25:00,36.5,29.3,29.38,NNE,25,5.4,5.4,75,0.08,,---,0.59,VWS V14.01,2013-03-25 20:25:00,
2013-03-25 16:30:00,36.7,29.8,29.38,NNE,15,7.2,7.2,76,0.04,,---,0.59,VWS V14.01,2013-03-25 20:30:00,
2013-03-25 16:35:00,36.7,29.8,29.38,NE,43,12.8,12.8,76,0.04,,---,0.59,VWS V14.01,2013-03-25 20:35:00,
2013-03-25 16:40:00,36.9,30.0,29.38,NNW,342,4.9,4.9,76,0.04,,---,0.59,VWS V14.01,2013-03-25 20:40:00,
2013-03-25 16:45:00,36.9,30.0,29.38,NE,56,9.6,9.6,76,0.04,,---,0.59,VWS V14.01,2013-03-25 20:45:00,
2013-03-25 16:50:00,36.9,30.0,29.38,NE,44,5.8,5.8,76,0.04,,---,0.59,VWS V14.01,2013-03-25 20:50:00,
2013-03-25 16:55:00,36.7,29.8,29.38,ENE,57,10.1,10.1,76,0.04,,---,0.59,VWS V14.01,2013-03-25 20:55:00,
2013-03-25 17:00:00,36.7,29.8,29.41,NNE,25,3.6,3.6,76,0.04,,---,0.59,VWS V14.01,2013-03-25 21:00:00,
2013-03-25 17:05:00,36.9,30.0,29.41,NW,307,6.3,6.3,76,0.04,,---,0.59,VWS V14.01,2013-03-25 21:05:00,
2013-03-25 17:10:00,36.9,30.0,29.41,NNE,21,7.6,7.6,76,0.04,,---,0.59,VWS V14.01,2013-03-25 21:10:00,
2013-03-25 17:16:00,36.7,29.8,29.41,North,7,5.8,5.8,76,0.04,,---,0.59,VWS V14.01,2013-03-25 21:16:00,
2013-03-25 17:21:00,36.7,29.8,29.41,NNE,23,7.6,7.6,76,0.04,,---,0.59,VWS V14.01,2013-03-25 21:21:00,
2013-03-25 17:26:00,36.7,29.8,29.41,North,357,3.1,3.1,76,0.04,,---,0.59,VWS V14.01,2013-03-25 21:26:00,
2013-03-25 17:31:00,36.7,29.8,29.41,NNE,18,4.0,4.0,76,0.04,,---,0.63,VWS V14.01,2013-03-25 21:31:00,
2013-03-25 17:36:00,36.7,29.8,29.41,North,4,6.3,6.3,76,0.04,,---,0.63,VWS V14.01,2013-03-25 21:36:00,
2013-03-25 17:41:00,36.7,29.8,29.41,NNW,345,6.3,6.3,76,0.04,,---,0.63,VWS V14.01,2013-03-25 21:41:00,
2013-03-25 17:46:00,36.7,29.8,29.41,NNE,23,7.6,7.6,76,0.04,,---,0.63,VWS V14.01,2013-03-25 21:46:00,
2013-03-25 17:51:00,36.7,29.8,29.41,NNW,333,6.3,6.3,76,0.04,,---,0.63,VWS V14.01,2013-03-25 21:51:00,
2013-03-25 17:56:00,36.5,29.7,29.41,North,10,6.3,6.3,76,0.04,,---,0.63,VWS V14.01,2013-03-25 21:56:00,
2013-03-25 18:01:00,36.5,29.7,29.41,NNE,27,5.8,5.8,76,0.04,,---,0.63,VWS V14.01,2013-03-25 22:01:00,
2013-03-25 18:06:00,36.5,29.7,29.41,NNE,28,8.1,8.1,76,0.04,,---,0.63,VWS V14.01,2013-03-25 22:06:00,
2013-03-25 18:11:00,36.3,29.5,29.41,NNW,330,4.9,4.9,76,0.04,,---,0.63,VWS V14.01,2013-03-25 22:11:00,
2013-03-25 18:16:00,36.3,29.5,29.41,NW,322,2.7,2.7,76,0.04,,---,0.63,VWS V14.01,2013-03-25 22:16:00,
2013-03-25 18:21:00,36.1,29.3,29.41,NW,312,5.8,5.8,76,0.04,,---,0.63,VWS V14.01,2013-03-25 22:21:00,
2013-03-25 18:26:00,36.1,29.3,29.41,NW,316,4.9,4.9,76,0.04,,---,0.63,VWS V14.01,2013-03-25 22:26:00,
2013-03-25 18:31:00,36.1,29.3,29.44,NNW,334,3.6,3.6,76,0.00,,---,0.63,VWS V14.01,2013-03-25 22:31:00,
2013-03-25 18:37:00,36.0,29.1,29.44,NNW,338,0.0,0.0,76,0.00,,---,0.63,VWS V14.01,2013-03-25 22:37:00,
2013-03-25 18:42:00,35.8,29.0,29.44,NW,323,2.7,2.7,76,0.00,,---,0.63,VWS V14.01,2013-03-25 22:42:00,
2013-03-25 18:47:00,35.8,29.0,29.44,WNW,284,3.6,3.6,76,0.00,,---,0.63,VWS V14.01,2013-03-25 22:47:00,
2013-03-25 18:52:00,35.6,28.8,29.44,WNW,283,3.1,3.1,76,0.00,,---,0.63,VWS V14.01,2013-03-25 22:52:00,
2013-03-25 18:57:00,35.4,28.6,29.44,North,11,4.9,4.9,76,0.00,,---,0.63,VWS V14.01,2013-03-25 22:57:00,
2013-03-25 19:02:00,35.1,28.3,29.44,North,350,2.2,2.2,76,0.04,,---,0.67,VWS V14.01,2013-03-25 23:02:00,
2013-03-25 19:07:00,35.1,28.3,29.44,NNW,340,2.7,2.7,76,0.04,,---,0.67,VWS V14.01,2013-03-25 23:07:00,
2013-03-25 19:12:00,34.7,27.9,29.44,NW,314,2.2,2.2,76,0.04,,---,0.67,VWS V14.01,2013-03-25 23:12:00,
2013-03-25 19:17:00,34.7,27.9,29.44,NNW,327,4.0,4.0,76,0.04,,---,0.67,VWS V14.01,2013-03-25 23:17:00,
2013-03-25 19:22:00,34.7,27.9,29.47,WNW,300,0.0,0.0,76,0.04,,---,0.67,VWS V14.01,2013-03-25 23:22:00,
2013-03-25 19:27:00,34.5,27.8,29.47,NW,318,0.0,0.0,76,0.04,,---,0.67,VWS V14.01,2013-03-25 23:27:00,
2013-03-25 19:32:00,34.3,27.6,29.47,NW,325,0.0,0.0,76,0.04,,---,0.67,VWS V14.01,2013-03-25 23:32:00,
2013-03-25 19:37:00,34.3,27.6,29.47,NNW,327,3.1,3.1,76,0.04,,---,0.67,VWS V14.01,2013-03-25 23:37:00,
2013-03-25 19:42:00,34.2,27.4,29.47,NW,311,2.7,2.7,76,0.04,,---,0.67,VWS V14.01,2013-03-25 23:42:00,
2013-03-25 19:47:00,34.2,27.4,29.47,NNW,335,0.0,0.0,76,0.04,,---,0.67,VWS V14.01,2013-03-25 23:47:00,
2013-03-25 19:52:00,34.2,27.4,29.47,WSW,255,4.9,4.9,76,0.04,,---,0.67,VWS V14.01,2013-03-25 23:52:00,
2013-03-25 19:57:00,34.2,27.4,29.47,NNW,344,3.1,3.1,76,0.04,,---,0.67,VWS V14.01,2013-03-25 23:57:00,
2013-03-25 20:03:00,34.3,27.6,29.47,NW,316,5.4,5.4,76,0.04,,---,0.67,VWS V14.01,2013-03-26 00:03:00,
2013-03-25 20:08:00,34.3,27.6,29.47,NW,320,3.6,3.6,76,0.04,,---,0.67,VWS V14.01,2013-03-26 00:08:00,
2013-03-25 20:13:00,34.3,27.6,29.47,NW,317,3.6,3.6,76,0.04,,---,0.67,VWS V14.01,2013-03-26 00:13:00,
2013-03-25 20:18:00,34.3,27.6,29.47,NW,321,2.7,2.7,76,0.00,,---,0.67,VWS V14.01,2013-03-26 00:18:00,
2013-03-25 20:23:00,34.2,27.4,29.47,WNW,303,0.0,0.0,76,0.00,,---,0.67,VWS V14.01,2013-03-26 00:23:00,
2013-03-25 20:28:00,34.2,27.4,29.50,WNW,303,0.0,0.0,76,0.00,,---,0.67,VWS V14.01,2013-03-26 00:28:00,
2013-03-25 20:33:00,34.2,27.4,29.50,WNW,303,0.0,0.0,76,0.00,,---,0.67,VWS V14.01,2013-03-26 00:33:00,
2013-03-25 20:38:00,34.2,27.4,29.50,NNW,340,0.0,0.0,76,0.00,,---,0.67,VWS V14.01,2013-03-26 00:38:00,
2013-03-25 20:43:00,34.2,27.4,29.50,WNW,300,0.0,0.0,76,0.00,,---,0.67,VWS V14.01,2013-03-26 00:43:00,
2013-03-25 20:48:00,34.2,27.4,29.50,WNW,300,0.0,0.0,76,0.00,,---,0.67,VWS V14.01,2013-03-26 00:48:00,
2013-03-25 20:53:00,34.2,27.4,29.50,WNW,300,0.0,0.0,76,0.00,,---,0.67,VWS V14.01,2013-03-26 00:53:00,
2013-03-25 20:58:00,34.2,27.4,29.50,WNW,282,0.0,0.0,76,0.04,,---,0.71,VWS V14.01,2013-03-26 00:58:00,
2013-03-25 21:03:00,34.2,27.4,29.50,WNW,282,0.0,0.0,76,0.04,,---,0.71,VWS V14.01,2013-03-26 01:03:00,
2013-03-25 21:08:00,34.2,27.4,29.50,WNW,282,0.0,0.0,76,0.04,,---,0.71,VWS V14.01,2013-03-26 01:08:00,
2013-03-25 21:13:00,34.2,27.4,29.50,WNW,282,0.0,0.0,76,0.04,,---,0.71,VWS V14.01,2013-03-26 01:13:00,
2013-03-25 21:18:00,34.3,27.6,29.50,ENE,72,0.0,0.0,76,0.04,,---,0.71,VWS V14.01,2013-03-26 01:18:00,
2013-03-25 21:23:00,34.2,27.4,29.50,ENE,71,0.0,0.0,76,0.04,,---,0.71,VWS V14.01,2013-03-26 01:23:00,
2013-03-25 21:28:00,34.0,27.2,29.50,ENE,72,0.0,0.0,76,0.04,,---,0.71,VWS V14.01,2013-03-26 01:28:00,
2013-03-25 21:33:00,34.0,27.2,29.53,NNE,28,3.6,3.6,76,0.04,,---,0.71,VWS V14.01,2013-03-26 01:33:00,
2013-03-25 21:38:00,33.8,27.0,29.53,NNE,19,0.0,0.0,76,0.04,,---,0.71,VWS V14.01,2013-03-26 01:38:00,
2013-03-25 21:43:00,33.8,27.0,29.53,NNW,341,0.0,0.0,76,0.04,,---,0.71,VWS V14.01,2013-03-26 01:43:00,
2013-03-25 21:48:00,33.8,27.0,29.53,NNW,341,0.0,0.0,76,0.04,,---,0.71,VWS V14.01,2013-03-26 01:48:00,
2013-03-25 21:53:00,33.8,27.0,29.53,North,353,0.0,0.0,76,0.04,,---,0.71,VWS V14.01,2013-03-26 01:53:00,
2013-03-25 21:58:00,33.8,27.0,29.53,NE,48,0.0,0.0,76,0.04,,---,0.71,VWS V14.01,2013-03-26 01:58:00,
2013-03-25 22:03:00,33.8,27.0,29.53,ENE,74,0.0,0.0,76,0.00,,---,0.71,VWS V14.01,2013-03-26 02:03:00,
2013-03-25 22:08:00,33.8,27.0,29.53,NE,52,0.0,0.0,76,0.00,,---,0.71,VWS V14.01,2013-03-26 02:08:00,
2013-03-25 22:13:00,33.8,27.0,29.53,NNE,20,0.0,0.0,76,0.00,,---,0.71,VWS V14.01,2013-03-26 02:13:00,
2013-03-25 22:18:00,33.8,27.0,29.53,North,0,0.0,0.0,76,0.00,,---,0.71,VWS V14.01,2013-03-26 02:18:00,
2013-03-25 22:23:00,33.8,27.0,29.53,North,0,0.0,0.0,76,0.00,,---,0.71,VWS V14.01,2013-03-26 02:23:00,
2013-03-25 22:28:00,33.8,27.0,29.53,North,0,0.0,0.0,76,0.00,,---,0.71,VWS V14.01,2013-03-26 02:28:00,
2013-03-25 22:33:00,33.8,27.0,29.56,North,0,0.0,0.0,76,0.00,,---,0.71,VWS V14.01,2013-03-26 02:33:00,
2013-03-25 22:38:00,33.8,27.0,29.56,West,272,0.0,0.0,76,0.00,,---,0.71,VWS V14.01,2013-03-26 02:38:00,
2013-03-25 22:43:00,33.8,27.0,29.56,West,272,0.0,0.0,76,0.00,,---,0.71,VWS V14.01,2013-03-26 02:43:00,
2013-03-25 22:48:00,33.8,27.0,29.56,West,272,0.0,0.0,76,0.00,,---,0.71,VWS V14.01,2013-03-26 02:48:00,
2013-03-25 22:53:00,33.8,27.0,29.56,West,272,0.0,0.0,76,0.00,,---,0.71,VWS V14.01,2013-03-26 02:53:00,
2013-03-25 22:58:00,33.8,27.0,29.56,West,272,0.0,0.0,76,0.00,,---,0.71,VWS V14.01,2013-03-26 02:58:00,
2013-03-25 23:03:00,33.8,27.0,29.56,SW,224,0.0,0.0,76,0.00,,---,0.71,VWS V14.01,2013-03-26 03:03:00,
2013-03-25 23:08:00,33.6,27.2,29.56,SW,224,0.0,0.0,77,0.00,,---,0.71,VWS V14.01,2013-03-26 03:08:00,
2013-03-25 23:13:00,33.6,27.2,29.56,SW,224,0.0,0.0,77,0.00,,---,0.71,VWS V14.01,2013-03-26 03:13:00,
2013-03-25 23:18:00,33.6,27.2,29.56,SW,224,0.0,0.0,77,0.00,,---,0.71,VWS V14.01,2013-03-26 03:18:00,
2013-03-25 23:23:00,33.6,27.2,29.56,SW,224,0.0,0.0,77,0.00,,---,0.71,VWS V14.01,2013-03-26 03:23:00,
2013-03-25 23:28:00,33.6,27.2,29.56,SW,224,0.0,0.0,77,0.00,,---,0.71,VWS V14.01,2013-03-26 03:28:00,
2013-03-25 23:33:00,33.6,27.2,29.56,West,263,0.0,0.0,77,0.00,,---,0.71,VWS V14.01,2013-03-26 03:33:00,
2013-03-25 23:38:00,33.6,27.2,29.56,West,263,0.0,0.0,77,0.00,,---,0.71,VWS V14.01,2013-03-26 03:38:00,
2013-03-25 23:44:00,33.6,27.2,29.56,WSW,251,0.0,0.0,77,0.00,,---,0.71,VWS V14.01,2013-03-26 03:44:00,
2013-03-25 23:49:00,33.6,27.2,29.56,SW,236,0.0,0.0,77,0.00,,---,0.71,VWS V14.01,2013-03-26 03:49:00,
2013-03-25 23:54:00,33.8,27.4,29.56,SW,220,0.0,0.0,77,0.00,,---,0.71,VWS V14.01,2013-03-26 03:54:00,
2013-03-25 23:59:00,33.8,27.4,29.56,WSW,250,0.0,0.0,77,0.00,,---,0.71,VWS V14.01,2013-03-26 03:59:00,